Time,TemperatureF,DewpointF,PressureIn,WindDirection,WindDirectionDegrees,WindSpeedMPH,WindSpeedGustMPH,Humidity,HourlyPrecipIn,Conditions,Clouds,dailyrainin,SoftwareType,DateUTC
2013-02-08 00:02:00,44.0,43.0,29.09,North,0,0.0,0.0,98,0.00,,,0.04,,2013-02-08 05:02:00,
2013-02-08 00:12:00,44.0,43.0,29.09,North,0,0.0,0.0,98,0.00,,,0.04,,2013-02-08 05:12:00,
2013-02-08 00:22:00,44.0,43.0,29.12,North,0,0.0,0.0,98,0.00,,,0.04,,2013-02-08 05:22:00,
2013-02-08 00:32:00,44.0,43.0,29.09,North,0,0.0,0.0,98,0.00,,,0.04,,2013-02-08 05:32:00,
2013-02-08 00:42:00,44.0,43.0,29.09,North,0,0.0,0.0,98,0.00,,,0.04,,2013-02-08 05:42:00,
2013-02-08 00:52:00,44.0,43.0,29.09,North,0,0.0,0.0,98,0.00,,,0.04,,2013-02-08 05:52:00,
2013-02-08 01:02:00,44.0,43.0,29.09,North,0,0.0,0.0,98,0.00,,,0.04,,2013-02-08 06:02:00,
2013-02-08 01:11:00,44.0,43.0,29.09,North,0,0.0,0.0,98,0.00,,,0.04,,2013-02-08 06:11:00,
2013-02-08 01:22:00,44.0,43.0,29.09,North,0,0.0,0.0,98,0.00,,,0.04,,2013-02-08 06:22:00,
2013-02-08 01:32:00,44.0,43.0,29.09,North,0,0.0,0.0,98,0.00,,,0.04,,2013-02-08 06:32:00,
2013-02-08 01:42:00,44.0,43.0,29.09,North,0,0.0,0.0,98,0.00,,,0.04,,2013-02-08 06:42:00,
2013-02-08 01:52:00,44.0,43.0,29.09,North,0,0.0,0.0,98,0.00,,,0.04,,2013-02-08 06:52:00,
2013-02-08 02:01:00,44.0,43.0,29.09,North,0,0.0,0.0,98,0.00,,,0.04,,2013-02-08 07:01:00,
2013-02-08 02:11:00,44.0,43.0,29.09,North,0,0.0,0.0,98,0.00,,,0.04,,2013-02-08 07:11:00,
2013-02-08 02:22:00,44.0,43.0,29.09,North,0,0.0,0.0,98,0.00,,,0.04,,2013-02-08 07:22:00,
2013-02-08 02:32:00,43.0,42.0,29.09,North,0,0.0,0.0,98,0.00,,,0.04,,2013-02-08 07:32:00,
2013-02-08 02:42:00,43.0,42.0,29.09,North,0,0.0,0.0,98,0.00,,,0.04,,2013-02-08 07:42:00,
2013-02-08 02:52:00,43.0,42.0,29.09,North,0,0.0,0.0,98,0.00,,,0.04,,2013-02-08 07:52:00,
2013-02-08 03:01:00,43.0,42.0,29.09,North,0,0.0,0.0,98,0.00,,,0.04,,2013-02-08 08:01:00,
2013-02-08 03:11:00,43.0,42.0,29.09,North,0,0.0,0.0,98,0.00,,,0.04,,2013-02-08 08:11:00,
2013-02-08 03:22:00,43.0,42.0,29.09,ENE,64,3.0,5.0,98,0.00,,,0.04,,2013-02-08 08:22:00,
2013-02-08 03:32:00,43.0,42.0,29.09,ENE,64,3.0,5.0,98,0.00,,,0.04,,2013-02-08 08:32:00,
2013-02-08 03:42:00,43.0,42.0,29.09,ENE,64,3.0,5.0,98,0.00,,,0.04,,2013-02-08 08:42:00,
2013-02-08 03:52:00,44.0,43.0,29.09,North,0,0.0,0.0,98,0.00,,,0.04,,2013-02-08 08:52:00,
2013-02-08 04:03:00,44.0,43.0,29.09,North,0,0.0,0.0,98,0.00,,,0.04,,2013-02-08 09:03:00,
2013-02-08 04:11:00,44.0,43.0,29.09,North,0,0.0,0.0,98,0.00,,,0.04,,2013-02-08 09:11:00,
2013-02-08 04:21:00,44.0,43.0,29.09,North,0,0.0,0.0,98,0.00,,,0.04,,2013-02-08 09:21:00,
2013-02-08 04:32:00,44.0,43.0,29.09,North,0,0.0,0.0,98,0.00,,,0.04,,2013-02-08 09:32:00,
2013-02-08 04:42:00,44.0,43.0,29.09,North,0,0.0,0.0,98,0.00,,,0.04,,2013-02-08 09:42:00,
2013-02-08 04:52:00,44.0,43.0,29.09,North,0,0.0,0.0,98,0.00,,,0.04,,2013-02-08 09:52:00,
2013-02-08 05:01:00,44.0,43.0,29.09,WNW,303,4.0,5.0,98,0.00,,,0.04,,2013-02-08 10:01:00,
2013-02-08 05:12:00,44.0,43.0,29.09,WNW,303,4.0,5.0,98,0.00,,,0.04,,2013-02-08 10:12:00,
2013-02-08 05:22:00,44.0,43.0,29.06,WNW,303,4.0,5.0,98,0.00,,,0.04,,2013-02-08 10:22:00,
2013-02-08 05:32:00,44.0,43.0,29.06,North,0,0.0,0.0,98,0.00,,,0.04,,2013-02-08 10:32:00,
2013-02-08 05:42:00,44.0,43.0,29.06,North,0,0.0,0.0,98,0.00,,,0.04,,2013-02-08 10:42:00,
2013-02-08 05:51:00,44.0,43.0,29.09,North,0,0.0,0.0,98,0.00,,,0.04,,2013-02-08 10:51:00,
2013-02-08 06:01:00,44.0,43.0,29.09,North,0,0.0,0.0,98,0.00,,,0.04,,2013-02-08 11:01:00,
2013-02-08 06:11:00,44.0,43.0,29.09,North,0,0.0,0.0,98,0.00,,,0.04,,2013-02-08 11:11:00,
2013-02-08 06:22:00,44.0,43.0,29.09,North,0,0.0,4.0,98,0.00,,,0.04,,2013-02-08 11:22:00,
2013-02-08 06:32:00,44.0,43.0,29.09,North,0,0.0,0.0,98,0.00,,,0.04,,2013-02-08 11:32:00,
2013-02-08 06:42:00,44.0,43.0,29.09,North,0,0.0,0.0,98,0.00,,,0.04,,2013-02-08 11:42:00,
2013-02-08 06:52:00,44.0,43.0,29.09,North,0,0.0,0.0,98,0.00,,,0.04,,2013-02-08 11:52:00,
2013-02-08 07:02:00,44.0,43.0,29.09,North,0,0.0,0.0,98,0.00,,,0.04,,2013-02-08 12:02:00,
2013-02-08 07:11:00,44.0,43.0,29.09,North,0,0.0,0.0,98,0.00,,,0.04,,2013-02-08 12:11:00,
2013-02-08 07:22:00,44.0,43.0,29.09,North,0,0.0,0.0,98,0.00,,,0.04,,2013-02-08 12:22:00,
2013-02-08 07:33:00,44.0,43.0,29.12,ENE,73,3.0,4.0,98,0.00,,,0.04,,2013-02-08 12:33:00,
2013-02-08 07:42:00,44.0,43.0,29.12,ENE,73,3.0,4.0,98,0.00,,,0.04,,2013-02-08 12:42:00,
2013-02-08 07:52:00,44.0,43.0,29.12,North,0,0.0,4.0,98,0.00,,,0.04,,2013-02-08 12:52:00,
2013-02-08 08:02:00,44.0,43.0,29.12,North,0,0.0,0.0,98,0.04,,,0.08,,2013-02-08 13:02:00,
2013-02-08 08:12:00,44.0,43.0,29.12,North,0,0.0,0.0,98,0.04,,,0.08,,2013-02-08 13:12:00,
2013-02-08 08:22:00,44.0,43.0,29.12,North,0,0.0,0.0,98,0.04,,,0.08,,2013-02-08 13:22:00,
2013-02-08 08:32:00,44.0,43.0,29.15,North,0,0.0,0.0,98,0.04,,,0.08,,2013-02-08 13:32:00,
2013-02-08 08:42:00,44.0,43.0,29.15,North,0,0.0,0.0,98,0.04,,,0.08,,2013-02-08 13:42:00,
2013-02-08 08:52:00,45.0,44.0,29.15,North,0,0.0,0.0,98,0.00,,,0.08,,2013-02-08 13:52:00,
2013-02-08 09:02:00,45.0,44.0,29.18,North,0,0.0,5.0,98,0.00,,,0.08,,2013-02-08 14:02:00,
2013-02-08 09:11:00,45.0,44.0,29.18,North,0,0.0,5.0,98,0.00,,,0.08,,2013-02-08 14:11:00,
2013-02-08 09:22:00,45.0,44.0,29.18,North,0,0.0,3.0,98,0.00,,,0.08,,2013-02-08 14:22:00,
2013-02-08 09:32:00,45.0,44.0,29.18,North,0,0.0,4.0,98,0.04,,,0.12,,2013-02-08 14:32:00,
2013-02-08 09:42:00,45.0,44.0,29.18,North,0,0.0,4.0,98,0.04,,,0.12,,2013-02-08 14:42:00,
2013-02-08 09:52:00,45.0,44.0,29.18,North,0,0.0,0.0,98,0.04,,,0.12,,2013-02-08 14:52:00,
2013-02-08 10:02:00,45.0,44.0,29.18,North,0,0.0,0.0,98,0.04,,,0.12,,2013-02-08 15:02:00,
2013-02-08 10:12:00,45.0,44.0,29.18,North,0,0.0,0.0,98,0.04,,,0.12,,2013-02-08 15:12:00,
2013-02-08 10:22:00,45.0,44.0,29.18,North,0,0.0,0.0,98,0.00,,,0.12,,2013-02-08 15:22:00,
2013-02-08 10:32:00,46.0,45.0,29.18,North,0,0.0,0.0,98,0.00,,,0.12,,2013-02-08 15:32:00,
2013-02-08 10:42:00,46.0,45.0,29.18,North,0,0.0,0.0,98,0.00,,,0.12,,2013-02-08 15:42:00,
2013-02-08 10:52:00,46.0,45.0,29.18,North,0,0.0,0.0,98,0.00,,,0.12,,2013-02-08 15:52:00,
2013-02-08 11:02:00,46.0,45.0,29.18,North,0,0.0,0.0,98,0.00,,,0.12,,2013-02-08 16:02:00,
2013-02-08 11:11:00,46.0,45.0,29.18,North,0,0.0,0.0,98,0.00,,,0.12,,2013-02-08 16:11:00,
2013-02-08 11:22:00,46.0,45.0,29.21,North,0,0.0,0.0,98,0.00,,,0.12,,2013-02-08 16:22:00,
2013-02-08 11:32:00,47.0,46.0,29.21,North,0,0.0,0.0,98,0.00,,,0.12,,2013-02-08 16:32:00,
2013-02-08 11:42:00,47.0,46.0,29.21,North,0,0.0,0.0,98,0.00,,,0.12,,2013-02-08 16:42:00,
2013-02-08 11:52:00,47.0,46.0,29.21,North,0,0.0,0.0,98,0.00,,,0.12,,2013-02-08 16:52:00,
2013-02-08 12:04:00,47.0,46.0,29.21,North,0,0.0,0.0,98,0.00,,,0.12,,2013-02-08 17:04:00,
2013-02-08 12:12:00,47.0,46.0,29.21,North,0,0.0,0.0,98,0.00,,,0.12,,2013-02-08 17:12:00,
2013-02-08 12:23:00,47.0,46.0,29.21,North,0,0.0,0.0,98,0.00,,,0.12,,2013-02-08 17:23:00,
2013-02-08 12:33:00,47.0,46.0,29.21,North,0,0.0,0.0,98,0.00,,,0.12,,2013-02-08 17:33:00,
2013-02-08 12:42:00,47.0,46.0,29.21,North,0,0.0,0.0,98,0.00,,,0.12,,2013-02-08 17:42:00,
2013-02-08 12:53:00,51.0,50.0,29.21,North,0,0.0,4.0,98,0.00,,,0.12,,2013-02-08 17:53:00,
2013-02-08 13:02:00,53.0,49.0,29.21,North,0,0.0,7.0,86,0.00,,,0.12,,2013-02-08 18:02:00,
2013-02-08 13:25:00,51.0,43.0,29.21,SE,131,5.0,7.0,75,0.00,,,0.12,,2013-02-08 18:25:00,
2013-02-08 13:35:00,51.0,43.0,29.21,South,179,4.0,8.0,73,0.00,,,0.12,,2013-02-08 18:35:00,
2013-02-08 13:44:00,51.0,43.0,29.21,South,179,4.0,8.0,73,0.00,,,0.12,,2013-02-08 18:44:00,
2013-02-08 13:52:00,54.0,40.0,29.21,South,172,4.0,11.0,60,0.00,,,0.12,,2013-02-08 18:52:00,
2013-02-08 14:22:00,52.0,35.0,29.21,SSW,197,4.0,7.0,53,0.00,,,0.12,,2013-02-08 19:22:00,
2013-02-08 14:32:00,51.0,34.0,29.21,SSW,194,4.0,11.0,53,0.00,,,0.12,,2013-02-08 19:32:00,
2013-02-08 14:52:00,53.0,36.0,29.21,SSE,148,5.0,10.0,53,0.00,,,0.12,,2013-02-08 19:52:00,
2013-02-08 15:02:00,53.0,36.0,29.21,SSE,148,5.0,10.0,53,0.00,,,0.12,,2013-02-08 20:02:00,
2013-02-08 15:12:00,53.0,36.0,29.21,SSE,148,5.0,10.0,53,0.00,,,0.12,,2013-02-08 20:12:00,
2013-02-08 15:22:00,52.0,33.0,29.21,South,175,4.0,9.0,48,0.00,,,0.12,,2013-02-08 20:22:00,
2013-02-08 15:32:00,53.0,33.0,29.21,SE,141,5.0,7.0,47,0.00,,,0.12,,2013-02-08 20:32:00,
2013-02-08 15:42:00,53.0,33.0,29.21,SE,141,5.0,7.0,47,0.00,,,0.12,,2013-02-08 20:42:00,
2013-02-08 15:52:00,52.0,32.0,29.21,South,178,4.0,11.0,47,0.00,,,0.12,,2013-02-08 20:52:00,
2013-02-08 16:02:00,52.0,33.0,29.23,SSE,156,4.0,8.0,48,0.00,,,0.12,,2013-02-08 21:02:00,
2013-02-08 16:12:00,52.0,33.0,29.23,SSE,156,4.0,8.0,48,0.00,,,0.12,,2013-02-08 21:12:00,
2013-02-08 16:22:00,51.0,33.0,29.23,SSE,165,4.0,11.0,49,0.00,,,0.12,,2013-02-08 21:22:00,
2013-02-08 16:33:00,50.0,31.0,29.23,South,173,5.0,9.0,47,0.00,,,0.12,,2013-02-08 21:33:00,
2013-02-08 16:42:00,50.0,31.0,29.23,South,173,5.0,9.0,47,0.00,,,0.12,,2013-02-08 21:42:00,
2013-02-08 16:52:00,49.0,30.0,29.26,SSE,157,7.0,11.0,48,0.00,,,0.12,,2013-02-08 21:52:00,
2013-02-08 17:02:00,46.0,28.0,29.26,SSE,161,5.0,10.0,50,0.00,,,0.12,,2013-02-08 22:02:00,
2013-02-08 17:11:00,46.0,28.0,29.26,SSE,161,5.0,10.0,50,0.00,,,0.12,,2013-02-08 22:11:00,
2013-02-08 17:22:00,46.0,28.0,29.26,SSE,161,5.0,10.0,50,0.00,,,0.12,,2013-02-08 22:22:00,
2013-02-08 17:32:00,44.0,28.0,29.29,SSE,152,5.0,9.0,53,0.00,,,0.12,,2013-02-08 22:32:00,
2013-02-08 17:42:00,44.0,28.0,29.29,SSE,152,5.0,9.0,53,0.00,,,0.12,,2013-02-08 22:42:00,
2013-02-08 17:52:00,44.0,28.0,29.29,SSE,152,5.0,9.0,53,0.00,,,0.12,,2013-02-08 22:52:00,
2013-02-08 18:02:00,43.0,28.0,29.29,SE,136,4.0,5.0,54,0.00,,,0.12,,2013-02-08 23:02:00,
2013-02-08 18:11:00,43.0,28.0,29.29,SE,136,4.0,5.0,54,0.00,,,0.12,,2013-02-08 23:11:00,
2013-02-08 18:22:00,41.0,27.0,29.29,North,0,0.0,7.0,58,0.00,,,0.12,,2013-02-08 23:22:00,
2013-02-08 18:32:00,40.0,28.0,29.29,SE,146,4.0,7.0,61,0.00,,,0.12,,2013-02-08 23:32:00,
2013-02-08 18:42:00,40.0,28.0,29.29,SE,146,4.0,7.0,61,0.00,,,0.12,,2013-02-08 23:42:00,
2013-02-08 18:52:00,39.0,28.0,29.32,SSE,160,3.0,6.0,64,0.00,,,0.12,,2013-02-08 23:52:00,
2013-02-08 19:02:00,39.0,29.0,29.32,SSE,152,4.0,8.0,66,0.00,,,0.12,,2013-02-09 00:02:00,
2013-02-08 19:12:00,39.0,29.0,29.32,SSE,152,4.0,8.0,66,0.00,,,0.12,,2013-02-09 00:12:00,
2013-02-08 19:22:00,40.0,29.0,29.32,SSW,204,3.0,6.0,65,0.00,,,0.12,,2013-02-09 00:22:00,
2013-02-08 19:32:00,40.0,29.0,29.32,SSW,204,3.0,6.0,65,0.00,,,0.12,,2013-02-09 00:32:00,
2013-02-08 19:42:00,40.0,29.0,29.32,SSW,204,3.0,6.0,65,0.00,,,0.12,,2013-02-09 00:42:00,
2013-02-08 19:52:00,37.0,27.0,29.35,SSE,163,3.0,8.0,66,0.00,,,0.12,,2013-02-09 00:52:00,
2013-02-08 20:02:00,37.0,27.0,29.35,SSE,162,4.0,7.0,67,0.00,,,0.12,,2013-02-09 01:02:00,
2013-02-08 20:12:00,37.0,27.0,29.35,SSE,162,4.0,7.0,67,0.00,,,0.12,,2013-02-09 01:12:00,
2013-02-08 20:22:00,36.0,26.0,29.35,South,173,4.0,8.0,67,0.00,,,0.12,,2013-02-09 01:22:00,
2013-02-08 20:32:00,36.0,26.0,29.35,South,173,4.0,8.0,67,0.00,,,0.12,,2013-02-09 01:32:00,
2013-02-08 20:42:00,36.0,26.0,29.35,South,173,4.0,8.0,67,0.00,,,0.12,,2013-02-09 01:42:00,
2013-02-08 20:52:00,35.0,26.0,29.38,North,0,0.0,7.0,68,0.00,,,0.12,,2013-02-09 01:52:00,
2013-02-08 21:02:00,34.0,25.0,29.38,SW,216,4.0,7.0,70,0.00,,,0.08,,2013-02-09 02:02:00,
2013-02-08 21:11:00,34.0,25.0,29.38,SW,216,4.0,7.0,70,0.00,,,0.08,,2013-02-09 02:11:00,
2013-02-08 21:22:00,34.0,25.0,29.38,SW,216,4.0,7.0,70,0.00,,,0.08,,2013-02-09 02:22:00,
2013-02-08 21:32:00,34.0,26.0,29.38,North,0,0.0,4.0,73,0.00,,,0.08,,2013-02-09 02:32:00,
2013-02-08 21:42:00,34.0,26.0,29.38,North,0,0.0,4.0,73,0.00,,,0.08,,2013-02-09 02:42:00,
2013-02-08 21:52:00,34.0,26.0,29.38,North,0,0.0,4.0,73,0.00,,,0.08,,2013-02-09 02:52:00,
2013-02-08 22:02:00,36.0,27.0,29.41,South,170,4.0,7.0,70,0.00,,,0.08,,2013-02-09 03:02:00,
2013-02-08 22:11:00,36.0,27.0,29.41,South,170,4.0,7.0,70,0.00,,,0.08,,2013-02-09 03:11:00,
2013-02-08 22:22:00,36.0,27.0,29.41,South,177,3.0,6.0,69,0.00,,,0.08,,2013-02-09 03:22:00,
2013-02-08 22:32:00,36.0,26.0,29.41,SSW,209,4.0,8.0,68,0.00,,,0.08,,2013-02-09 03:32:00,
2013-02-08 22:42:00,36.0,26.0,29.41,SSW,209,4.0,8.0,68,0.00,,,0.08,,2013-02-09 03:42:00,
2013-02-08 22:53:00,36.0,27.0,29.41,SSW,201,4.0,6.0,69,0.00,,,0.08,,2013-02-09 03:53:00,
2013-02-08 23:03:00,36.0,26.0,29.41,SSW,192,3.0,9.0,68,0.00,,,0.08,,2013-02-09 04:03:00,
2013-02-08 23:12:00,36.0,26.0,29.41,SSW,192,3.0,9.0,68,0.00,,,0.08,,2013-02-09 04:12:00,
2013-02-08 23:23:00,36.0,26.0,29.41,SSW,192,4.0,7.0,68,0.00,,,0.08,,2013-02-09 04:23:00,
2013-02-08 23:32:00,36.0,26.0,29.41,SSW,192,4.0,7.0,68,0.00,,,0.08,,2013-02-09 04:32:00,
2013-02-08 23:42:00,36.0,26.0,29.41,SSW,192,4.0,7.0,68,0.00,,,0.08,,2013-02-09 04:42:00,
2013-02-08 23:52:00,35.0,26.0,29.38,WSW,240,3.0,6.0,70,0.00,,,0.08,,2013-02-09 04:52:00,